TimeEDT,TemperatureF,Dew PointF,Humidity,Sea Level PressureIn,VisibilityMPH,Wind Direction,Wind SpeedMPH,Gust SpeedMPH,PrecipitationIn,Events,Conditions,WindDirDegrees,DateUTC
12:53 AM,46.9,21.9,37,29.94,10.0,WSW,4.6,-,N/A,,Clear,250,2012-11-02 04:53:00
1:53 AM,46.0,21.0,37,29.92,10.0,WSW,4.6,-,N/A,,Clear,240,2012-11-02 05:53:00
2:53 AM,45.0,23.0,42,29.93,10.0,West,4.6,-,N/A,,Clear,260,2012-11-02 06:53:00
3:53 AM,46.0,21.9,39,29.92,10.0,WNW,3.5,-,N/A,,Clear,300,2012-11-02 07:53:00
4:53 AM,44.1,23.0,43,29.92,10.0,Calm,Calm,-,N/A,,Clear,0,2012-11-02 08:53:00
5:53 AM,42.1,26.1,53,29.92,10.0,Calm,Calm,-,N/A,,Clear,0,2012-11-02 09:53:00
6:53 AM,44.1,26.1,49,29.92,10.0,WSW,3.5,-,N/A,,Overcast,250,2012-11-02 10:53:00
7:53 AM,46.0,25.0,44,29.93,10.0,West,6.9,-,N/A,,Clear,280,2012-11-02 11:53:00
8:53 AM,48.0,27.0,44,29.94,10.0,West,6.9,-,N/A,,Clear,260,2012-11-02 12:53:00
9:53 AM,52.0,28.0,40,29.94,10.0,West,9.2,-,N/A,,Clear,260,2012-11-02 13:53:00
10:53 AM,57.0,30.9,37,29.93,10.0,SW,6.9,-,N/A,,Clear,220,2012-11-02 14:53:00
11:53 AM,63.0,33.1,33,29.91,10.0,WSW,11.5,-,N/A,,Clear,240,2012-11-02 15:53:00
12:53 PM,68.0,35.1,30,29.88,10.0,WSW,16.1,20.7,N/A,,Clear,250,2012-11-02 16:53:00
1:53 PM,71.1,36.0,28,29.84,10.0,WSW,13.8,-,N/A,,Clear,240,2012-11-02 17:53:00
2:53 PM,73.0,37.0,27,29.83,10.0,WSW,13.8,21.9,N/A,,Clear,240,2012-11-02 18:53:00
3:53 PM,75.0,39.0,27,29.82,10.0,WSW,12.7,20.7,N/A,,Clear,240,2012-11-02 19:53:00
4:53 PM,73.9,37.9,27,29.83,10.0,WSW,12.7,-,N/A,,Clear,240,2012-11-02 20:53:00
5:53 PM,70.0,37.0,30,29.85,10.0,West,5.8,-,N/A,,Clear,270,2012-11-02 21:53:00
6:53 PM,64.0,39.0,40,29.90,10.0,NNE,4.6,-,N/A,,Clear,30,2012-11-02 22:53:00
7:53 PM,59.0,37.0,44,29.93,10.0,North,8.1,-,N/A,,Clear,10,2012-11-02 23:53:00
8:53 PM,60.1,35.1,39,29.94,10.0,North,3.5,-,N/A,,Clear,360,2012-11-03 00:53:00
9:53 PM,57.0,36.0,45,29.96,10.0,NNE,6.9,-,N/A,,Clear,20,2012-11-03 01:53:00
10:53 PM,53.1,37.0,55,29.98,10.0,Calm,Calm,-,N/A,,Clear,0,2012-11-03 02:53:00
11:53 PM,53.1,35.1,50,29.99,10.0,North,5.8,-,N/A,,Clear,10,2012-11-03 03:53:00